Terminal Aerodrome Forecast
Issued by NWS Tuscon, AZ

Home | Current Version | Previous Version | Text Only | Print | Product List | Glossary On
Versions: 1 2 3 4 5 6 7 8 9 10 11 12 13 14 15 16 17 18 19 20 21
156
FTUS45 KTWC 272333
TAFTUS
TAF
KTUS 272333Z 2800/2824 34009G15KT P6SM SCT100
     FM280100 32009G15KT P6SM VCTS SCT090CB BKN150
      TEMPO 2801/2803 5SM -TSRA BKN080CB
     FM280400 17010KT P6SM VCSH BKN100
     FM280700 14005KT P6SM SCT100 BKN250=

USA.gov is the U.S. government's official web portal to all federal, state and local government web resources and services.